Time;durP1;ratioP1;P1;durP2;ratioP2;P2;SDS_P1;SDS_P2;PMS_P1;PMS_P2;Temp;Humidity;BMP_temperature;BMP_pressure;BME280_temperature;BME280_humidity;BME280_pressure;Samples;Min_cycle;Max_cycle;Signal;HPM_P1;HPM_P2
2024/01/05 00:02:21;;;;;;;10.30;4.43;;;5.60;98.00;;;;;;5054178;28;20457;-65
2024/01/05 00:04:49;;;;;;;7.97;3.93;;;5.50;98.00;;;;;;5053984;28;20597;-66
2024/01/05 00:07:16;;;;;;;5.73;3.10;;;5.50;98.00;;;;;;5053832;28;20484;-67
2024/01/05 00:09:43;;;;;;;9.83;4.07;;;5.50;98.00;;;;;;5053801;28;20456;-66
2024/01/05 00:12:10;;;;;;;11.33;4.00;;;5.40;98.00;;;;;;5053798;28;20908;-66
2024/01/05 00:14:38;;;;;;;8.47;4.00;;;5.30;98.00;;;;;;5053714;28;20447;-65
2024/01/05 00:17:05;;;;;;;11.20;4.07;;;5.30;98.00;;;;;;5053645;28;20498;-66
2024/01/05 00:19:35;;;;;;;9.73;3.80;;;5.40;98.00;;;;;;5053716;28;20462;-66
2024/01/05 00:22:03;;;;;;;7.27;3.47;;;5.40;98.00;;;;;;5053632;28;20463;-66
2024/01/05 00:24:31;;;;;;;8.83;4.20;;;5.40;98.00;;;;;;5053548;28;20456;-66
2024/01/05 00:26:59;;;;;;;13.47;5.57;;;5.30;98.00;;;;;;5035514;28;20461;-66
2024/01/05 00:29:31;;;;;;;13.93;5.67;;;5.20;98.00;;;;;;5053305;28;20553;-66
2024/01/05 00:32:01;;;;;;;13.37;4.53;;;5.20;98.00;;;;;;5036481;28;20442;-66
2024/01/05 00:34:30;;;;;;;8.90;4.47;;;5.20;98.00;;;;;;5053323;28;20816;-66
2024/01/05 00:36:58;;;;;;;12.17;4.07;;;5.20;98.00;;;;;;5053193;28;20512;-66
2024/01/05 00:39:27;;;;;;;6.90;3.40;;;5.30;98.00;;;;;;5053124;28;20468;-66
2024/01/05 00:41:55;;;;;;;6.83;3.97;;;5.40;98.00;;;;;;5053432;28;20464;-65
2024/01/05 00:44:22;;;;;;;10.23;4.40;;;5.50;98.00;;;;;;5035689;28;20454;-66
2024/01/05 00:46:49;;;;;;;8.53;3.80;;;5.40;98.00;;;;;;5035372;28;20497;-66
2024/01/05 00:49:17;;;;;;;13.20;4.10;;;5.50;98.00;;;;;;5053189;28;20463;-66
2024/01/05 00:51:45;;;;;;;11.60;4.33;;;5.40;98.00;;;;;;5053110;28;20458;-66
2024/01/05 00:54:12;;;;;;;8.57;3.60;;;5.50;98.00;;;;;;5052876;28;21085;-66
2024/01/05 00:56:43;;;;;;;8.17;3.83;;;5.40;98.00;;;;;;5052828;28;20457;-66
2024/01/05 00:59:13;;;;;;;7.17;3.60;;;5.40;98.00;;;;;;5052819;28;20477;-67
2024/01/05 01:01:40;;;;;;;5.83;3.37;;;5.40;98.00;;;;;;5052861;28;20517;-66
2024/01/05 01:04:07;;;;;;;7.70;3.40;;;5.40;98.00;;;;;;5052684;28;20458;-67
2024/01/05 01:06:34;;;;;;;7.40;3.10;;;5.30;98.00;;;;;;5052649;28;20466;-66
2024/01/05 01:09:01;;;;;;;5.90;3.10;;;5.30;98.00;;;;;;5052574;28;20448;-66
2024/01/05 01:11:28;;;;;;;6.93;3.20;;;5.20;98.00;;;;;;5052177;28;20733;-66
2024/01/05 01:13:56;;;;;;;9.47;3.87;;;5.20;98.00;;;;;;5052312;28;20489;-66
2024/01/05 01:16:23;;;;;;;7.03;3.20;;;5.10;98.00;;;;;;5052546;28;20464;-66
2024/01/05 01:18:50;;;;;;;5.10;3.10;;;5.00;98.00;;;;;;5052312;28;20457;-66
2024/01/05 01:21:18;;;;;;;9.40;3.40;;;4.90;98.00;;;;;;5052500;28;20448;-66
2024/01/05 01:23:45;;;;;;;8.30;3.47;;;4.90;98.00;;;;;;5053198;28;20522;-65
2024/01/05 01:26:12;;;;;;;10.60;3.53;;;4.90;98.00;;;;;;5034769;28;20878;-66
2024/01/05 01:28:39;;;;;;;6.37;3.33;;;5.00;98.00;;;;;;5052260;28;20463;-66
2024/01/05 01:31:08;;;;;;;9.53;3.57;;;5.10;98.00;;;;;;5052250;28;20947;-66
2024/01/05 01:33:35;;;;;;;9.73;3.70;;;5.10;98.00;;;;;;5052250;28;20843;-65
2024/01/05 01:36:02;;;;;;;7.87;3.37;;;5.10;98.00;;;;;;5052125;28;20486;-66
2024/01/05 01:38:29;;;;;;;5.50;3.43;;;4.90;98.00;;;;;;5034546;28;20451;-66
2024/01/05 01:40:56;;;;;;;11.97;3.80;;;4.90;98.00;;;;;;5052157;28;20451;-66
2024/01/05 01:43:27;;;;;;;9.77;3.70;;;4.90;98.00;;;;;;5052010;28;20451;-66
2024/01/05 01:45:56;;;;;;;7.63;3.90;;;5.00;98.00;;;;;;5052269;28;20461;-66
2024/01/05 01:48:25;;;;;;;8.10;4.00;;;5.20;98.00;;;;;;5052316;28;20456;-66
2024/01/05 01:50:55;;;;;;;8.60;3.60;;;5.10;98.00;;;;;;5052079;28;20504;-66
2024/01/05 01:53:24;;;;;;;8.97;3.60;;;5.00;98.00;;;;;;5051869;28;20505;-66
2024/01/05 01:55:52;;;;;;;6.80;3.90;;;5.00;98.00;;;;;;5051769;28;20842;-66
2024/01/05 01:58:21;;;;;;;6.47;3.33;;;4.90;98.00;;;;;;5051870;28;20446;-66
2024/01/05 02:00:49;;;;;;;8.33;3.63;;;4.90;98.00;;;;;;5051687;28;20462;-65
2024/01/05 02:03:17;;;;;;;7.00;3.43;;;4.90;98.00;;;;;;5051537;28;20465;-67
2024/01/05 02:05:46;;;;;;;9.00;3.53;;;4.90;98.00;;;;;;5051453;28;20472;-66
2024/01/05 02:08:13;;;;;;;8.20;3.53;;;5.00;98.00;;;;;;5051335;28;20474;-66
2024/01/05 02:10:41;;;;;;;7.70;3.53;;;5.00;98.00;;;;;;5051500;28;20456;-66
2024/01/05 02:13:08;;;;;;;10.10;3.77;;;5.10;98.00;;;;;;5051337;28;20575;-67
2024/01/05 02:15:35;;;;;;;10.83;3.80;;;5.10;98.00;;;;;;5051653;28;20454;-66
2024/01/05 02:18:11;;;;;;;9.20;3.47;;;5.10;98.00;;;;;;5033678;28;20452;-66
2024/01/05 02:20:39;;;;;;;9.10;4.30;;;5.00;98.00;;;;;;5051392;28;20963;-66
2024/01/05 02:23:14;;;;;;;8.07;3.93;;;5.00;98.00;;;;;;5050630;28;20457;-67
2024/01/05 02:25:43;;;;;;;6.57;3.63;;;4.90;98.00;;;;;;5051439;28;20943;-66
2024/01/05 02:28:10;;;;;;;8.43;3.70;;;4.90;98.00;;;;;;5051228;28;20993;-66
2024/01/05 02:30:37;;;;;;;7.33;3.30;;;4.90;98.00;;;;;;5051359;28;20443;-66
2024/01/05 02:33:04;;;;;;;7.57;3.30;;;4.90;98.00;;;;;;5051123;28;20492;-66
2024/01/05 02:35:31;;;;;;;11.40;3.57;;;4.90;98.00;;;;;;5051262;28;20445;-66
2024/01/05 02:38:01;;;;;;;6.03;3.13;;;4.90;98.00;;;;;;5051103;28;21135;-66
2024/01/05 02:40:28;;;;;;;9.80;3.43;;;5.00;98.00;;;;;;5051066;28;20594;-66
2024/01/05 02:42:56;;;;;;;5.60;2.83;;;5.00;98.00;;;;;;5051049;28;20989;-66
2024/01/05 02:45:24;;;;;;;7.53;3.03;;;5.10;98.00;;;;;;5051175;28;20454;-66
2024/01/05 02:47:51;;;;;;;9.33;3.50;;;5.10;98.00;;;;;;5050936;28;20991;-66
2024/01/05 02:50:19;;;;;;;11.00;3.23;;;5.10;98.00;;;;;;5051011;28;20448;-66
2024/01/05 02:52:46;;;;;;;6.47;2.70;;;5.10;98.00;;;;;;5050934;28;20839;-66
2024/01/05 02:55:14;;;;;;;8.50;3.83;;;5.10;98.00;;;;;;5032872;28;20452;-66
2024/01/05 02:57:41;;;;;;;6.40;3.03;;;5.20;98.00;;;;;;5050982;28;20457;-66
2024/01/05 03:00:12;;;;;;;10.30;3.00;;;5.20;98.00;;;;;;5050796;28;20454;-66
2024/01/05 03:02:39;;;;;;;6.83;3.73;;;5.20;98.00;;;;;;5051043;28;20982;-66
2024/01/05 03:05:06;;;;;;;11.67;3.00;;;5.20;98.00;;;;;;5050801;28;20456;-66
2024/01/05 03:07:33;;;;;;;4.30;2.77;;;5.10;98.00;;;;;;5051272;28;20449;-66
2024/01/05 03:10:01;;;;;;;5.43;2.87;;;5.00;98.00;;;;;;5050659;28;20462;-66
2024/01/05 03:12:28;;;;;;;6.63;2.87;;;5.00;98.00;;;;;;5049520;28;20450;-66
2024/01/05 03:14:55;;;;;;;4.57;3.13;;;5.00;98.00;;;;;;5050814;28;21005;-66
2024/01/05 03:17:23;;;;;;;5.03;2.73;;;5.00;98.00;;;;;;5051324;28;20460;-65
2024/01/05 03:19:50;;;;;;;6.30;3.00;;;5.00;98.00;;;;;;5050862;28;20449;-66
2024/01/05 03:22:17;;;;;;;5.40;3.00;;;5.00;98.00;;;;;;5050821;28;20461;-66
2024/01/05 03:24:44;;;;;;;4.97;3.17;;;5.00;98.00;;;;;;5050299;28;20512;-66
2024/01/05 03:27:14;;;;;;;4.77;2.83;;;5.10;98.00;;;;;;5050649;28;20463;-65
2024/01/05 03:29:41;;;;;;;5.47;2.73;;;5.10;98.00;;;;;;5050862;28;20462;-66
2024/01/05 03:32:09;;;;;;;7.73;3.47;;;5.10;98.00;;;;;;5050952;28;20473;-66
2024/01/05 03:34:38;;;;;;;4.67;2.73;;;5.30;98.00;;;;;;5052592;28;20487;-65
2024/01/05 03:37:05;;;;;;;6.27;2.93;;;5.20;98.00;;;;;;5054561;28;20469;-66
2024/01/05 03:39:32;;;;;;;7.87;3.10;;;5.10;98.00;;;;;;5054654;28;20475;-66
2024/01/05 03:42:00;;;;;;;8.20;3.17;;;5.10;98.00;;;;;;5054434;28;20495;-66
2024/01/05 03:44:27;;;;;;;5.50;3.10;;;5.00;98.00;;;;;;5036856;28;20449;-66
2024/01/05 03:46:54;;;;;;;5.63;3.00;;;5.00;98.00;;;;;;5054391;28;20820;-66
2024/01/05 03:49:21;;;;;;;7.07;2.93;;;4.90;98.00;;;;;;5054176;28;20447;-65
2024/01/05 03:51:50;;;;;;;4.10;2.50;;;4.90;98.00;;;;;;5054135;28;20458;-66
2024/01/05 03:54:17;;;;;;;5.47;2.80;;;4.90;98.00;;;;;;5053913;28;20493;-65
2024/01/05 03:56:46;;;;;;;10.53;3.20;;;4.70;98.00;;;;;;5054451;28;20452;-66
2024/01/05 03:59:14;;;;;;;6.20;2.73;;;4.70;98.00;;;;;;5054119;28;20540;-66
2024/01/05 04:01:46;;;;;;;4.03;2.47;;;4.60;98.00;;;;;;5054067;28;20450;-66
2024/01/05 04:04:13;;;;;;;3.80;2.30;;;4.60;98.00;;;;;;5053776;28;20454;-66
2024/01/05 04:06:40;;;;;;;6.90;2.53;;;4.60;98.00;;;;;;5053807;28;20461;-66
2024/01/05 04:09:10;;;;;;;6.00;2.80;;;4.70;98.00;;;;;;5053668;28;20462;-66
2024/01/05 04:11:40;;;;;;;6.33;2.27;;;4.70;98.00;;;;;;5053911;28;20486;-66
2024/01/05 04:14:08;;;;;;;4.33;2.17;;;4.80;98.00;;;;;;5053577;28;20519;-65
2024/01/05 04:16:35;;;;;;;3.80;2.30;;;4.90;98.00;;;;;;5053661;28;20457;-66
2024/01/05 04:19:02;;;;;;;4.83;2.33;;;5.00;98.00;;;;;;5052908;28;20474;-66
2024/01/05 04:21:29;;;;;;;5.63;2.37;;;5.00;98.00;;;;;;5053667;28;20677;-66
2024/01/05 04:23:57;;;;;;;4.10;2.03;;;4.90;98.00;;;;;;5053439;28;20446;-66
2024/01/05 04:26:26;;;;;;;4.13;2.47;;;5.00;98.00;;;;;;5053510;28;20599;-66
2024/01/05 04:28:53;;;;;;;4.50;2.60;;;5.10;98.00;;;;;;5053388;28;20448;-65
2024/01/05 04:31:20;;;;;;;4.17;2.63;;;5.20;98.00;;;;;;5053199;28;20983;-66
2024/01/05 04:33:47;;;;;;;7.80;2.63;;;5.10;98.00;;;;;;5053466;28;20477;-66
2024/01/05 04:36:16;;;;;;;2.60;1.97;;;5.00;98.00;;;;;;5053531;28;20941;-66
2024/01/05 04:38:43;;;;;;;3.30;2.10;;;4.90;98.00;;;;;;5053155;28;20453;-66
2024/01/05 04:41:10;;;;;;;4.37;2.30;;;4.80;98.00;;;;;;5053162;28;20869;-66
2024/01/05 04:43:39;;;;;;;7.40;2.80;;;4.70;98.00;;;;;;5053142;28;20534;-66
2024/01/05 04:46:08;;;;;;;5.10;2.30;;;4.70;98.00;;;;;;5052135;28;20449;-66
2024/01/05 04:48:35;;;;;;;3.77;2.10;;;4.70;98.00;;;;;;5053046;28;20461;-66
2024/01/05 04:51:02;;;;;;;4.63;2.40;;;4.60;98.00;;;;;;5053211;28;20467;-66
2024/01/05 04:53:30;;;;;;;2.30;2.20;;;4.60;98.00;;;;;;5052929;28;20992;-66
2024/01/05 04:55:57;;;;;;;4.90;2.40;;;4.70;98.00;;;;;;5052985;28;20453;-66
2024/01/05 04:58:25;;;;;;;7.83;2.70;;;4.70;98.00;;;;;;5052746;28;20832;-66
2024/01/05 05:00:54;;;;;;;6.60;2.60;;;4.90;98.00;;;;;;5035090;28;20448;-66
2024/01/05 05:03:21;;;;;;;5.77;2.90;;;4.90;98.00;;;;;;5052953;28;21022;-66
2024/01/05 05:05:48;;;;;;;9.63;1.90;;;4.80;98.00;;;;;;5034870;28;20476;-66
2024/01/05 05:08:15;;;;;;;4.10;2.20;;;4.70;98.00;;;;;;5052684;28;20460;-67
2024/01/05 05:10:43;;;;;;;5.73;2.17;;;4.70;98.00;;;;;;5052622;28;20455;-66
2024/01/05 05:13:10;;;;;;;2.73;1.90;;;4.70;98.00;;;;;;5052813;28;20461;-65
2024/01/05 05:15:37;;;;;;;6.20;2.27;;;4.70;98.00;;;;;;5052664;28;20845;-66
2024/01/05 05:18:06;;;;;;;7.70;2.40;;;4.60;98.00;;;;;;5052483;28;20484;-67
2024/01/05 05:20:33;;;;;;;4.20;2.20;;;4.70;98.00;;;;;;5052557;28;20811;-66
2024/01/05 05:23:11;;;;;;;5.23;2.00;;;4.70;98.00;;;;;;5052385;28;20459;-66
2024/01/05 05:25:39;;;;;;;2.37;1.90;;;5.00;98.00;;;;;;5052473;28;20539;-66
2024/01/05 05:28:06;;;;;;;4.17;1.97;;;5.10;98.00;;;;;;5052402;28;20792;-65
2024/01/05 05:30:33;;;;;;;5.90;2.23;;;5.20;98.00;;;;;;5052675;28;20532;-66
2024/01/05 05:33:00;;;;;;;3.43;2.00;;;5.10;98.00;;;;;;5052560;28;20456;-65
2024/01/05 05:35:29;;;;;;;2.23;2.10;;;5.00;98.00;;;;;;5052122;28;20485;-65
2024/01/05 05:37:56;;;;;;;3.03;2.03;;;4.90;98.00;;;;;;5052066;28;20636;-66
2024/01/05 05:40:23;;;;;;;4.87;2.90;;;4.90;98.00;;;;;;5052190;28;20498;-65
2024/01/05 05:42:50;;;;;;;5.17;2.37;;;4.90;98.00;;;;;;5052096;28;20452;-66
2024/01/05 05:45:17;;;;;;;4.10;2.20;;;4.80;98.00;;;;;;5034623;28;20468;-66
2024/01/05 05:47:44;;;;;;;3.80;2.30;;;4.70;98.00;;;;;;5052006;28;20828;-65
2024/01/05 05:50:13;;;;;;;4.50;2.33;;;4.60;98.00;;;;;;5034190;28;20450;-66
2024/01/05 05:52:43;;;;;;;8.33;2.50;;;4.60;98.00;;;;;;5051847;28;20530;-65
2024/01/05 05:55:12;;;;;;;7.80;2.43;;;4.60;98.00;;;;;;5051674;28;20495;-66
2024/01/05 05:57:40;;;;;;;5.03;2.70;;;4.50;98.00;;;;;;5051433;28;20441;-65
2024/01/05 06:00:08;;;;;;;5.43;2.23;;;4.40;98.00;;;;;;5033700;28;20454;-66
2024/01/05 06:02:36;;;;;;;6.93;2.90;;;4.30;98.00;;;;;;5051570;28;20461;-65
2024/01/05 06:05:03;;;;;;;3.77;2.60;;;4.30;98.00;;;;;;5051482;28;20475;-66
2024/01/05 06:07:30;;;;;;;4.00;2.43;;;4.30;98.00;;;;;;5051617;28;20471;-65
2024/01/05 06:09:59;;;;;;;5.10;2.40;;;4.30;98.00;;;;;;5051570;28;20457;-65
2024/01/05 06:12:26;;;;;;;5.33;2.30;;;4.20;98.00;;;;;;5051489;28;20483;-65
2024/01/05 06:14:55;;;;;;;4.93;2.30;;;4.30;98.00;;;;;;5051363;28;20477;-65
2024/01/05 06:17:22;;;;;;;3.70;2.50;;;4.20;98.00;;;;;;5050973;28;20464;-66
2024/01/05 06:19:49;;;;;;;6.30;2.70;;;4.30;98.00;;;;;;5051281;28;20865;-66
2024/01/05 06:22:16;;;;;;;3.30;2.23;;;4.40;98.00;;;;;;5051370;28;20796;-65
2024/01/05 06:24:44;;;;;;;8.37;2.70;;;4.70;98.00;;;;;;5051350;28;20464;-66
2024/01/05 06:27:13;;;;;;;4.90;2.80;;;4.60;98.00;;;;;;5051180;28;20460;-66
2024/01/05 06:29:40;;;;;;;3.90;2.30;;;4.50;98.00;;;;;;5051193;28;20451;-66
2024/01/05 06:32:08;;;;;;;3.00;2.27;;;4.40;98.00;;;;;;5051366;28;20446;-66
2024/01/05 06:34:35;;;;;;;5.20;2.70;;;4.10;98.00;;;;;;5033641;28;20486;-66
2024/01/05 06:37:01;;;;;;;5.37;2.77;;;4.00;98.00;;;;;;5051338;28;20464;-66
2024/01/05 06:39:28;;;;;;;3.40;2.30;;;4.00;98.00;;;;;;5051181;28;20879;-66
2024/01/05 06:41:55;;;;;;;5.90;3.00;;;4.10;98.00;;;;;;5051240;28;21009;-66
2024/01/05 06:44:24;;;;;;;5.60;2.80;;;4.20;98.00;;;;;;5051087;28;20488;-66
2024/01/05 06:46:54;;;;;;;4.00;2.53;;;4.30;98.00;;;;;;5051104;28;20453;-66
2024/01/05 06:49:21;;;;;;;4.77;2.57;;;4.30;98.00;;;;;;5051092;28;20445;-66
2024/01/05 06:51:49;;;;;;;4.67;2.60;;;4.30;98.00;;;;;;5033396;28;20453;-66
2024/01/05 06:54:17;;;;;;;5.87;2.70;;;4.40;98.00;;;;;;5051429;28;20492;-66
2024/01/05 06:56:44;;;;;;;7.17;3.20;;;4.40;98.00;;;;;;5051703;28;20478;-66
2024/01/05 06:59:11;;;;;;;11.63;3.47;;;4.60;98.00;;;;;;5051046;28;20455;-65
2024/01/05 07:01:40;;;;;;;6.73;3.00;;;4.90;98.00;;;;;;5033291;28;20446;-70
2024/01/05 07:04:08;;;;;;;8.03;3.30;;;4.90;98.00;;;;;;5050867;28;20452;-70
2024/01/05 07:06:39;;;;;;;6.33;2.87;;;4.80;98.00;;;;;;5033503;28;20826;-71
2024/01/05 07:09:07;;;;;;;4.83;2.93;;;4.70;98.00;;;;;;5052222;28;20465;-69
2024/01/05 07:11:34;;;;;;;7.00;2.83;;;4.50;98.00;;;;;;5054937;28;20452;-70
2024/01/05 07:14:01;;;;;;;9.30;2.80;;;4.50;98.00;;;;;;5054821;28;20454;-70
2024/01/05 07:16:28;;;;;;;4.10;2.50;;;4.40;98.00;;;;;;5055176;28;21252;-70
2024/01/05 07:18:56;;;;;;;4.50;2.40;;;4.40;98.00;;;;;;5054936;28;20449;-71
2024/01/05 07:21:24;;;;;;;5.73;2.67;;;4.40;98.00;;;;;;5055152;28;20451;-70
2024/01/05 07:23:52;;;;;;;8.20;2.80;;;4.50;98.00;;;;;;5054866;28;20464;-70
2024/01/05 07:26:21;;;;;;;4.30;2.50;;;4.60;98.00;;;;;;5037405;28;20445;-70
2024/01/05 07:28:49;;;;;;;5.90;2.40;;;4.50;98.00;;;;;;5054549;28;20454;-70
2024/01/05 07:31:16;;;;;;;4.83;2.70;;;4.60;98.00;;;;;;5054811;28;20942;-71
2024/01/05 07:33:43;;;;;;;4.97;3.00;;;4.70;98.00;;;;;;5054545;28;20817;-70
2024/01/05 07:36:11;;;;;;;6.50;2.70;;;4.70;98.00;;;;;;5054412;28;20486;-70
2024/01/05 07:38:38;;;;;;;4.63;2.50;;;4.60;98.00;;;;;;5054391;28;21058;-70
2024/01/05 07:41:06;;;;;;;8.00;2.63;;;4.70;98.00;;;;;;5054359;28;20837;-70
2024/01/05 07:43:34;;;;;;;7.63;2.80;;;4.60;98.00;;;;;;5054271;28;20485;-70
2024/01/05 07:46:03;;;;;;;6.63;2.60;;;4.60;98.00;;;;;;5054253;28;20457;-70
2024/01/05 07:48:33;;;;;;;7.13;2.83;;;4.50;98.00;;;;;;5054217;28;20447;-70
2024/01/05 07:51:03;;;;;;;7.37;2.50;;;4.50;98.00;;;;;;5054087;28;20462;-70
2024/01/05 07:53:32;;;;;;;3.90;2.70;;;4.50;98.00;;;;;;5054123;28;20881;-70
2024/01/05 07:56:00;;;;;;;3.90;2.43;;;4.50;98.00;;;;;;5054090;28;20482;-70
2024/01/05 07:58:27;;;;;;;6.87;3.03;;;4.40;98.00;;;;;;5053983;28;20454;-71
2024/01/05 08:00:54;;;;;;;5.53;2.60;;;4.50;98.00;;;;;;5054007;28;20458;-70
2024/01/05 08:03:22;;;;;;;4.57;2.47;;;4.50;98.00;;;;;;5053908;28;20479;-70
2024/01/05 08:05:49;;;;;;;4.70;2.30;;;4.70;98.00;;;;;;5053611;28;20504;-70
2024/01/05 08:08:16;;;;;;;5.83;2.40;;;4.80;98.00;;;;;;5053732;28;20455;-69
2024/01/05 08:10:46;;;;;;;5.80;2.60;;;5.10;98.00;;;;;;5053833;28;20452;-70
2024/01/05 08:13:13;;;;;;;5.13;2.40;;;5.20;98.00;;;;;;5053685;28;20455;-69
2024/01/05 08:15:40;;;;;;;4.87;2.80;;;5.10;98.00;;;;;;5053628;28;20496;-69
2024/01/05 08:18:09;;;;;;;4.83;2.77;;;5.20;98.00;;;;;;5053484;28;20496;-71
2024/01/05 08:20:36;;;;;;;5.23;3.00;;;5.30;98.00;;;;;;5052202;28;20457;-70
2024/01/05 08:23:03;;;;;;;7.43;3.40;;;5.40;98.00;;;;;;5053512;28;20451;-69
2024/01/05 08:25:30;;;;;;;6.40;2.70;;;5.30;98.00;;;;;;5053762;28;20457;-70
2024/01/05 08:27:58;;;;;;;4.37;2.80;;;5.20;98.00;;;;;;5053531;28;20480;-69
2024/01/05 08:30:26;;;;;;;6.40;2.53;;;5.10;98.00;;;;;;5053252;28;20450;-71
2024/01/05 08:32:55;;;;;;;6.60;2.50;;;5.00;98.00;;;;;;5053241;28;20460;-71
2024/01/05 08:35:22;;;;;;;4.97;2.87;;;5.00;98.00;;;;;;5053160;28;20522;-70
2024/01/05 08:37:49;;;;;;;5.57;3.20;;;5.00;98.00;;;;;;5053200;28;20456;-71
2024/01/05 08:40:18;;;;;;;7.70;3.57;;;5.00;98.00;;;;;;5053378;28;20451;-71
2024/01/05 08:42:45;;;;;;;5.83;2.80;;;5.00;98.00;;;;;;5053200;28;20818;-69
2024/01/05 08:45:16;;;;;;;4.60;2.57;;;5.00;98.00;;;;;;5035673;28;20459;-70
2024/01/05 08:47:43;;;;;;;5.30;2.77;;;5.10;98.00;;;;;;5053095;28;20470;-69
2024/01/05 08:50:11;;;;;;;7.97;3.10;;;5.20;98.00;;;;;;5035457;28;20460;-70
2024/01/05 08:52:39;;;;;;;4.30;2.70;;;5.40;98.00;;;;;;5053126;28;20457;-71
2024/01/05 08:55:07;;;;;;;8.57;3.70;;;5.60;98.00;;;;;;5052845;28;20550;-70
2024/01/05 08:57:34;;;;;;;7.10;3.07;;;5.70;98.00;;;;;;5052992;28;20485;-70
2024/01/05 09:00:02;;;;;;;5.23;3.13;;;5.80;98.00;;;;;;5052963;28;20454;-70
2024/01/05 09:02:31;;;;;;;4.37;2.90;;;5.70;98.00;;;;;;5053112;28;20450;-70
2024/01/05 09:04:58;;;;;;;5.80;3.17;;;5.80;98.00;;;;;;5052568;28;20480;-71
2024/01/05 09:07:25;;;;;;;8.73;3.60;;;5.80;98.00;;;;;;5053167;28;20467;-69
2024/01/05 09:09:52;;;;;;;7.27;3.43;;;5.70;98.00;;;;;;5052930;28;20456;-70
2024/01/05 09:12:19;;;;;;;9.70;4.43;;;5.70;98.00;;;;;;5052866;28;21006;-70
2024/01/05 09:14:47;;;;;;;7.97;3.63;;;5.70;98.00;;;;;;5052549;28;20464;-69
2024/01/05 09:17:14;;;;;;;6.40;3.73;;;5.70;98.00;;;;;;5052487;28;20510;-70
2024/01/05 09:19:43;;;;;;;9.33;4.10;;;5.70;98.00;;;;;;5052564;28;20446;-70
2024/01/05 09:22:10;;;;;;;8.17;3.90;;;5.70;98.00;;;;;;5034746;28;20962;-71
2024/01/05 09:24:37;;;;;;;5.30;3.70;;;5.80;98.00;;;;;;5052543;28;20453;-69
2024/01/05 09:27:05;;;;;;;7.40;3.30;;;5.80;98.00;;;;;;5034646;28;20455;-71
2024/01/05 09:29:33;;;;;;;6.83;3.87;;;5.80;98.00;;;;;;5052300;28;20822;-71
2024/01/05 09:32:01;;;;;;;9.23;4.40;;;5.90;98.00;;;;;;5034197;28;20454;-70
2024/01/05 09:34:28;;;;;;;10.73;4.30;;;5.90;98.00;;;;;;5052223;28;20452;-70
2024/01/05 09:36:58;;;;;;;9.30;4.43;;;6.00;98.00;;;;;;5052051;28;20492;-71
2024/01/05 09:39:25;;;;;;;8.00;4.10;;;6.00;98.00;;;;;;5052004;28;20497;-69
2024/01/05 09:41:53;;;;;;;10.97;4.43;;;6.20;98.00;;;;;;5052024;28;20460;-70
2024/01/05 09:44:21;;;;;;;11.00;4.80;;;6.20;98.00;;;;;;5034532;28;20453;-70
2024/01/05 09:46:48;;;;;;;10.97;5.10;;;6.10;98.00;;;;;;5052016;28;20457;-70
2024/01/05 09:49:16;;;;;;;12.03;5.23;;;6.10;98.00;;;;;;5051811;28;20457;-69
2024/01/05 09:51:45;;;;;;;9.10;4.63;;;6.10;98.00;;;;;;5034397;28;20649;-69
2024/01/05 09:54:15;;;;;;;8.13;4.20;;;6.00;98.00;;;;;;5051802;28;20508;-69
2024/01/05 09:56:46;;;;;;;12.03;4.90;;;6.00;98.00;;;;;;5033866;28;20914;-70
2024/01/05 09:59:17;;;;;;;12.70;5.10;;;6.10;98.00;;;;;;5051719;28;20460;-70
2024/01/05 10:01:48;;;;;;;9.00;4.60;;;6.20;98.00;;;;;;5051642;28;20462;-70
2024/01/05 10:04:16;;;;;;;14.80;5.53;;;6.30;98.00;;;;;;5051721;28;20513;-71
2024/01/05 10:06:43;;;;;;;9.43;4.70;;;6.30;98.00;;;;;;5051494;28;20480;-70
2024/01/05 10:09:10;;;;;;;9.40;4.53;;;6.40;98.00;;;;;;5051844;28;20743;-70
2024/01/05 10:11:42;;;;;;;10.40;4.40;;;6.50;98.00;;;;;;5051583;28;20500;-70
2024/01/05 10:14:12;;;;;;;8.67;4.50;;;6.50;98.00;;;;;;5051417;28;20531;-70
2024/01/05 10:16:39;;;;;;;12.60;4.60;;;6.70;98.00;;;;;;5051439;28;20546;-70
2024/01/05 10:19:14;;;;;;;12.53;5.33;;;6.70;98.00;;;;;;5051436;28;20450;-70
2024/01/05 10:21:41;;;;;;;16.40;5.37;;;6.70;98.00;;;;;;5051586;28;20460;-70
2024/01/05 10:24:16;;;;;;;15.63;5.27;;;6.80;98.00;;;;;;5051283;28;20593;-70
2024/01/05 10:26:45;;;;;;;10.90;4.83;;;6.80;98.00;;;;;;5051412;28;20457;-70
2024/01/05 10:29:16;;;;;;;11.60;5.27;;;6.90;98.00;;;;;;5051223;28;20472;-71
2024/01/05 10:31:43;;;;;;;12.00;5.70;;;7.00;98.00;;;;;;5051256;28;21020;-70
2024/01/05 10:34:10;;;;;;;12.50;5.70;;;7.20;98.00;;;;;;5051375;28;20650;-70
2024/01/05 10:36:37;;;;;;;9.43;4.93;;;7.20;98.00;;;;;;5051253;28;20506;-70
2024/01/05 10:39:08;;;;;;;12.80;5.47;;;7.30;98.00;;;;;;5051116;28;20440;-69
2024/01/05 10:41:36;;;;;;;9.57;5.13;;;7.20;98.00;;;;;;5051307;28;20452;-69
2024/01/05 10:44:05;;;;;;;10.00;5.10;;;7.10;98.00;;;;;;5050173;28;20457;-69
2024/01/05 10:46:33;;;;;;;9.80;5.53;;;7.10;98.00;;;;;;5051128;28;20456;-70
2024/01/05 10:49:02;;;;;;;13.07;5.87;;;7.20;98.00;;;;;;5051063;28;20452;-70
2024/01/05 10:51:30;;;;;;;11.03;5.27;;;7.40;98.00;;;;;;5051246;28;20820;-71
2024/01/05 10:53:59;;;;;;;9.93;5.37;;;7.50;98.00;;;;;;5051035;28;20452;-70
2024/01/05 10:56:31;;;;;;;11.07;5.47;;;7.60;98.00;;;;;;5051238;28;20504;-70
2024/01/05 10:58:58;;;;;;;10.40;5.97;;;7.70;98.00;;;;;;5051252;28;20460;-69
2024/01/05 11:01:30;;;;;;;12.30;5.80;;;7.70;98.00;;;;;;5051272;28;20452;-69
2024/01/05 11:03:58;;;;;;;13.30;5.50;;;7.80;98.00;;;;;;5051179;28;20478;-71
2024/01/05 11:06:25;;;;;;;9.27;4.63;;;7.80;98.00;;;;;;5033297;28;20464;-70
2024/01/05 11:09:04;;;;;;;14.17;5.43;;;7.90;98.00;;;;;;5033377;28;20453;-70
2024/01/05 11:11:41;;;;;;;9.70;5.10;;;7.80;98.00;;;;;;5051094;28;20452;-69
2024/01/05 11:14:26;;;;;;;15.20;5.70;;;7.80;98.00;;;;;;5033775;28;20453;-71
2024/01/05 11:17:14;;;;;;;12.00;5.10;;;7.80;98.00;;;;;;5034844;28;20497;-70
2024/01/05 11:20:06;;;;;;;12.67;5.57;;;7.90;98.00;;;;;;5050808;28;20950;-70
2024/01/05 11:22:35;;;;;;;11.83;5.60;;;8.00;98.00;;;;;;5050914;28;20464;-69
2024/01/05 11:25:03;;;;;;;14.90;6.03;;;8.00;98.00;;;;;;5050728;28;20454;-70
2024/01/05 11:27:36;;;;;;;10.90;5.27;;;8.10;98.00;;;;;;5050726;28;20528;-70
2024/01/05 11:30:08;;;;;;;13.60;6.00;;;8.20;98.00;;;;;;5050554;28;20476;-70
2024/01/05 11:32:38;;;;;;;11.53;5.40;;;8.20;98.00;;;;;;5033646;28;20536;-70
2024/01/05 11:35:29;;;;;;;14.57;6.00;;;8.30;98.00;;;;;;5050580;28;20955;-70
2024/01/05 11:37:58;;;;;;;15.70;5.53;;;8.20;98.00;;;;;;5050523;28;20469;-69
2024/01/05 11:40:29;;;;;;;14.10;5.80;;;8.10;98.00;;;;;;5050576;28;20522;-70
2024/01/05 11:42:57;;;;;;;17.17;5.57;;;8.10;98.00;;;;;;5032795;28;21074;-70
2024/01/05 11:45:49;;;;;;;12.83;6.07;;;8.30;98.00;;;;;;5050462;28;20971;-70
2024/01/05 11:48:50;;;;;;;11.60;5.33;;;8.40;98.00;;;;;;5050109;28;20506;-70
2024/01/05 11:51:19;;;;;;;14.13;5.37;;;8.40;98.00;;;;;;5050539;28;20520;-69
2024/01/05 11:53:48;;;;;;;12.80;6.07;;;8.50;98.00;;;;;;5032834;28;21041;-70
2024/01/05 11:56:20;;;;;;;12.67;5.67;;;8.60;98.00;;;;;;5053329;28;20489;-71
2024/01/05 11:58:48;;;;;;;14.50;5.83;;;8.50;98.00;;;;;;5053463;28;20959;-70
2024/01/05 12:01:16;;;;;;;12.40;5.30;;;8.50;98.00;;;;;;5054274;28;20464;-70
2024/01/05 12:03:44;;;;;;;12.20;5.73;;;8.50;98.00;;;;;;5020424;28;20544;-70
2024/01/05 12:06:14;;;;;;;13.37;7.00;;;8.40;98.00;;;;;;5053697;28;20469;-70
2024/01/05 12:08:41;;;;;;;17.10;7.80;;;8.60;98.00;;;;;;5053980;28;20454;-70
2024/01/05 12:11:11;;;;;;;17.83;7.30;;;8.60;98.00;;;;;;5036078;28;20487;-70
2024/01/05 12:13:39;;;;;;;15.37;6.50;;;8.70;98.00;;;;;;5053622;28;20461;-70
2024/01/05 12:16:08;;;;;;;16.30;7.23;;;8.80;98.00;;;;;;5036183;28;20891;-70
2024/01/05 12:18:43;;;;;;;13.53;6.97;;;8.70;98.00;;;;;;5053704;28;20459;-70
2024/01/05 12:21:14;;;;;;;14.60;6.70;;;8.60;98.00;;;;;;5053620;28;20981;-69
2024/01/05 12:23:53;;;;;;;13.60;6.97;;;8.60;98.00;;;;;;5053803;28;20527;-70
2024/01/05 12:26:20;;;;;;;12.60;5.83;;;8.60;98.00;;;;;;5053560;28;20465;-70
2024/01/05 12:28:48;;;;;;;15.20;6.43;;;8.60;98.00;;;;;;5053543;28;20480;-70
2024/01/05 12:31:16;;;;;;;17.80;7.63;;;8.70;98.00;;;;;;5053572;28;20458;-70
2024/01/05 12:33:44;;;;;;;20.63;6.80;;;8.70;98.00;;;;;;5053458;28;20468;-70
2024/01/05 12:36:12;;;;;;;16.30;6.70;;;8.80;98.00;;;;;;5035700;28;20590;-71
2024/01/05 12:38:41;;;;;;;17.60;6.90;;;8.90;98.00;;;;;;5053394;28;20453;-70
2024/01/05 12:41:10;;;;;;;11.30;6.00;;;8.90;98.00;;;;;;5053248;28;20468;-70
2024/01/05 12:43:37;;;;;;;12.10;6.00;;;8.80;98.00;;;;;;5035416;28;21030;-70
2024/01/05 12:46:09;;;;;;;15.60;7.07;;;8.70;98.00;;;;;;5053058;28;20451;-70
2024/01/05 12:48:37;;;;;;;14.23;6.27;;;8.60;98.00;;;;;;5036060;28;20465;-69
2024/01/05 12:51:04;;;;;;;14.87;6.63;;;8.60;98.00;;;;;;5053121;28;20443;-70
2024/01/05 12:53:31;;;;;;;13.97;6.57;;;8.70;98.00;;;;;;5053405;28;20473;-71
2024/01/05 12:56:08;;;;;;;14.43;6.57;;;8.80;98.00;;;;;;5053049;28;20458;-70
2024/01/05 12:58:40;;;;;;;16.47;6.97;;;8.80;98.00;;;;;;5053147;28;20462;-70
2024/01/05 13:01:07;;;;;;;15.43;7.27;;;8.70;98.00;;;;;;5052783;28;20817;-71
2024/01/05 13:03:35;;;;;;;14.23;6.50;;;8.80;98.00;;;;;;5052935;28;20462;-70